createdAt,value
2018-11-28T00:00:35.003Z,10.70
2018-11-28T00:03:06.250Z,10.83
2018-11-28T00:05:35.447Z,10.80
2018-11-28T00:08:04.599Z,10.81
2018-11-28T00:10:33.847Z,10.80
2018-11-28T00:13:03.062Z,10.89
2018-11-28T00:15:32.255Z,10.81
2018-11-28T00:18:01.148Z,10.75
2018-11-28T00:20:30.135Z,10.83
2018-11-28T00:22:58.931Z,10.72
2018-11-28T00:25:27.747Z,10.90
2018-11-28T00:27:57.122Z,10.92
2018-11-28T00:30:26.679Z,10.89
2018-11-28T00:32:55.528Z,10.98
2018-11-28T00:35:24.978Z,10.95
2018-11-28T00:37:53.824Z,10.99
2018-11-28T00:40:23.475Z,10.87
2018-11-28T00:42:52.752Z,10.88
2018-11-28T00:45:23.651Z,10.97
2018-11-28T00:47:52.600Z,10.98
2018-11-28T00:50:27.217Z,10.85
2018-11-28T00:52:55.995Z,10.83
2018-11-28T00:55:25.105Z,10.69
2018-11-28T00:58:00.603Z,10.68
2018-11-28T01:00:29.565Z,10.59
2018-11-28T01:02:58.528Z,10.50
2018-11-28T01:05:27.297Z,10.50
2018-11-28T01:07:56.434Z,10.48
2018-11-28T01:10:25.555Z,10.49
2018-11-28T01:12:55.221Z,10.56
2018-11-28T01:15:24.345Z,10.62
2018-11-28T01:17:53.646Z,10.59
2018-11-28T01:20:23.553Z,10.59
2018-11-28T01:22:52.705Z,10.56
2018-11-28T01:25:22.402Z,10.65
2018-11-28T01:27:51.793Z,10.52
2018-11-28T01:30:28.409Z,10.43
2018-11-28T01:32:57.210Z,10.35
2018-11-28T01:35:26.177Z,10.35
2018-11-28T01:37:54.961Z,10.29
2018-11-28T01:40:24.409Z,10.22
2018-11-28T01:42:53.809Z,10.23
2018-11-28T01:45:23.732Z,10.24
2018-11-28T01:47:53.023Z,10.27
2018-11-28T01:50:22.225Z,10.22
2018-11-28T01:52:51.270Z,10.10
2018-11-28T01:55:21.468Z,10.20
2018-11-28T01:57:50.280Z,10.25
2018-11-28T02:00:21.629Z,10.12
2018-11-28T02:02:55.119Z,10.13
2018-11-28T02:05:24.118Z,10.15
2018-11-28T02:07:52.914Z,10.14
2018-11-28T02:10:22.053Z,10.19
2018-11-28T02:12:50.858Z,10.12
2018-11-28T02:15:24.553Z,10.15
2018-11-28T02:17:53.421Z,10.17
2018-11-28T02:20:22.228Z,10.16
2018-11-28T02:22:51.344Z,10.16
2018-11-28T02:25:20.395Z,10.19
2018-11-28T02:27:49.513Z,10.14
2018-11-28T02:30:19.549Z,10.12
2018-11-28T02:32:49.411Z,10.13
2018-11-28T02:35:18.957Z,10.12
2018-11-28T02:37:48.990Z,10.24
2018-11-28T02:40:19.016Z,10.26
2018-11-28T02:42:48.704Z,10.18
2018-11-28T02:45:21.809Z,10.24
2018-11-28T02:47:51.502Z,10.33
2018-11-28T02:50:20.496Z,10.36
2018-11-28T02:52:49.601Z,10.19
2018-11-28T02:55:18.766Z,10.12
2018-11-28T02:57:48.809Z,10.30
2018-11-28T03:00:23.536Z,10.35
2018-11-28T03:02:52.923Z,10.35
2018-11-28T03:05:21.964Z,10.30
2018-11-28T03:07:51.170Z,10.24
2018-11-28T03:10:21.341Z,10.25
2018-11-28T03:12:50.143Z,10.33
2018-11-28T03:15:27.861Z,10.37
2018-11-28T03:17:56.853Z,10.30
2018-11-28T03:20:25.806Z,10.24
2018-11-28T03:22:55.134Z,10.21
2018-11-28T03:25:24.246Z,10.23
2018-11-28T03:27:53.226Z,10.26
2018-11-28T03:30:22.025Z,10.30
2018-11-28T03:32:50.790Z,10.34
2018-11-28T03:35:21.780Z,10.50
2018-11-28T03:37:48.866Z,10.68
2018-11-28T03:40:18.235Z,10.56
2018-11-28T03:42:47.190Z,10.66
2018-11-28T03:45:16.695Z,10.54
2018-11-28T03:47:46.353Z,10.67
2018-11-28T03:50:16.008Z,10.73
2018-11-28T03:52:45.290Z,10.64
2018-11-28T03:55:15.213Z,10.59
2018-11-28T03:57:45.313Z,10.53
2018-11-28T04:00:16.264Z,10.71
2018-11-28T04:02:45.289Z,10.65
2018-11-28T04:05:14.127Z,10.78
2018-11-28T04:07:42.942Z,10.77
2018-11-28T04:10:12.865Z,10.72
2018-11-28T04:12:42.376Z,10.60
2018-11-28T04:15:17.078Z,10.51
2018-11-28T04:17:46.333Z,10.51
2018-11-28T04:20:17.535Z,10.55
2018-11-28T04:22:46.417Z,10.82
2018-11-28T04:25:16.013Z,10.80
2018-11-28T04:27:45.580Z,10.77
2018-11-28T04:30:16.698Z,10.77
2018-11-28T04:32:46.593Z,10.85
2018-11-28T04:35:15.801Z,10.91
2018-11-28T04:37:46.230Z,10.83
2018-11-28T04:40:16.054Z,10.82
2018-11-28T04:42:45.217Z,10.63
2018-11-28T04:45:23.167Z,10.57
2018-11-28T04:47:53.354Z,10.54
2018-11-28T04:50:22.167Z,10.70
2018-11-28T04:52:50.959Z,10.75
2018-11-28T04:55:20.602Z,10.71
2018-11-28T04:57:49.393Z,10.83
2018-11-28T05:00:20.859Z,10.73
2018-11-28T05:02:50.281Z,10.78
2018-11-28T05:05:19.248Z,10.91
2018-11-28T05:07:50.393Z,10.93
2018-11-28T05:10:23.568Z,10.93
2018-11-28T05:12:53.000Z,10.86
2018-11-28T05:15:22.931Z,10.92
2018-11-28T05:17:53.391Z,10.88
2018-11-28T05:20:24.730Z,10.85
2018-11-28T05:22:53.786Z,10.85
2018-11-28T05:25:23.714Z,10.85
2018-11-28T05:27:53.918Z,10.67
2018-11-28T05:30:24.466Z,10.54
2018-11-28T05:32:53.490Z,10.79
2018-11-28T05:35:24.881Z,10.77
2018-11-28T05:37:54.132Z,10.68
2018-11-28T05:40:23.747Z,10.72
2018-11-28T05:42:52.745Z,10.72
2018-11-28T05:45:21.748Z,10.62
2018-11-28T05:47:50.808Z,10.68
2018-11-28T05:50:20.371Z,10.82
2018-11-28T05:52:49.561Z,10.84
2018-11-28T05:55:19.500Z,10.84
2018-11-28T05:57:48.302Z,10.81
2018-11-28T06:00:23.826Z,10.79
2018-11-28T06:02:52.850Z,10.75
2018-11-28T06:05:21.953Z,10.69
2018-11-28T06:07:50.915Z,10.58
2018-11-28T06:10:19.693Z,10.68
2018-11-28T06:12:48.768Z,10.83
2018-11-28T06:15:17.765Z,10.64
2018-11-28T06:17:46.565Z,10.66
2018-11-28T06:20:16.326Z,10.79
2018-11-28T06:22:45.368Z,10.89
2018-11-28T06:25:16.834Z,10.80
2018-11-28T06:27:44.811Z,10.89
2018-11-28T06:30:16.505Z,10.85
2018-11-28T06:32:50.992Z,10.90
2018-11-28T06:35:15.081Z,10.90
2018-11-28T06:37:44.223Z,10.86
2018-11-28T06:40:14.620Z,10.85
2018-11-28T06:42:44.174Z,10.90
2018-11-28T06:45:15.032Z,10.92
2018-11-28T06:47:44.284Z,10.91
2018-11-28T06:50:15.215Z,10.84
2018-11-28T06:52:45.169Z,10.78
2018-11-28T06:55:16.927Z,10.78
2018-11-28T06:57:45.737Z,10.65
2018-11-28T07:00:20.890Z,10.59
2018-11-28T07:02:51.476Z,10.50
2018-11-28T07:05:20.782Z,10.60
2018-11-28T07:07:50.256Z,10.73
2018-11-28T07:10:20.941Z,10.81
2018-11-28T07:12:49.940Z,10.81
2018-11-28T07:15:20.117Z,10.74
2018-11-28T07:17:49.257Z,10.72
2018-11-28T07:20:18.290Z,10.76
2018-11-28T07:22:47.117Z,10.62
2018-11-28T07:25:17.005Z,10.69
2018-11-28T07:27:46.899Z,10.65
2018-11-28T07:30:20.675Z,10.66
2018-11-28T07:32:51.785Z,10.70
2018-11-28T07:35:20.926Z,10.59
2018-11-28T07:37:49.935Z,10.50
2018-11-28T07:40:20.778Z,10.61
2018-11-28T07:42:55.721Z,10.61
2018-11-28T07:45:24.483Z,10.47
2018-11-28T07:47:53.473Z,10.54
2018-11-28T07:50:22.259Z,10.67
2018-11-28T07:52:51.079Z,10.41
2018-11-28T07:55:19.933Z,10.48
2018-11-28T07:57:49.339Z,10.62
2018-11-28T08:00:18.148Z,10.64
2018-11-28T08:02:47.310Z,10.62
2018-11-28T08:05:16.443Z,10.53
2018-11-28T08:07:45.586Z,10.68
2018-11-28T08:10:23.187Z,10.63
2018-11-28T08:12:52.939Z,10.64
2018-11-28T08:15:22.055Z,10.76
2018-11-28T08:17:50.932Z,10.72
2018-11-28T08:20:19.946Z,10.60
2018-11-28T08:22:49.264Z,10.49
2018-11-28T08:25:18.650Z,10.62
2018-11-28T08:27:48.737Z,10.70
2018-11-28T08:30:21.378Z,10.51
2018-11-28T08:32:50.268Z,10.43
2018-11-28T08:35:19.502Z,10.53
2018-11-28T08:37:48.890Z,10.60
2018-11-28T08:40:20.827Z,10.63
2018-11-28T08:42:50.301Z,10.58
2018-11-28T08:45:19.977Z,10.50
2018-11-28T08:47:51.902Z,10.53
2018-11-28T08:50:25.959Z,10.71
2018-11-28T08:52:55.310Z,10.71
2018-11-28T08:55:24.131Z,10.62
2018-11-28T08:57:53.121Z,10.77
2018-11-28T09:00:23.286Z,10.82
2018-11-28T09:02:53.697Z,10.84
2018-11-28T09:05:22.737Z,10.83
2018-11-28T09:07:51.756Z,10.83
2018-11-28T09:10:20.653Z,10.93
2018-11-28T09:12:50.066Z,11.06
2018-11-28T09:15:21.334Z,11.02
2018-11-28T09:17:50.551Z,10.98
2018-11-28T09:20:21.234Z,11.10
2018-11-28T09:22:50.704Z,11.16
2018-11-28T09:25:19.949Z,11.23
2018-11-28T09:27:50.018Z,11.16
2018-11-28T09:30:19.474Z,11.15
2018-11-28T09:32:49.399Z,11.11
2018-11-28T09:35:19.027Z,11.10
2018-11-28T09:37:48.110Z,11.10
2018-11-28T09:40:19.915Z,11.09
2018-11-28T09:42:49.386Z,11.12
2018-11-28T09:45:18.746Z,11.12
2018-11-28T09:47:47.578Z,11.17
2018-11-28T09:50:17.689Z,11.16
2018-11-28T09:52:46.746Z,11.11
2018-11-28T09:55:16.722Z,11.18
2018-11-28T09:57:45.915Z,11.28
2018-11-28T10:00:19.284Z,11.27
2018-11-28T10:02:49.130Z,11.24
2018-11-28T10:05:26.098Z,11.29
2018-11-28T10:07:54.887Z,11.34
2018-11-28T10:10:23.663Z,11.29
2018-11-28T10:12:52.986Z,11.30
2018-11-28T10:15:23.017Z,11.35
2018-11-28T10:17:51.987Z,11.40
2018-11-28T10:20:21.398Z,11.37
2018-11-28T10:22:51.469Z,11.48
2018-11-28T10:25:22.022Z,11.49
2018-11-28T10:27:58.033Z,11.43
2018-11-28T10:30:29.367Z,11.47
2018-11-28T10:32:58.369Z,11.43
2018-11-28T10:35:27.430Z,11.40
2018-11-28T10:37:56.686Z,11.41
2018-11-28T10:40:25.646Z,11.11
2018-11-28T10:42:56.803Z,11.30
2018-11-28T10:45:26.585Z,11.35
2018-11-28T10:47:55.730Z,11.42
2018-11-28T10:50:24.510Z,11.48
2018-11-28T10:52:53.307Z,11.45
2018-11-28T10:55:23.154Z,11.30
2018-11-28T10:57:51.953Z,11.35
2018-11-28T11:00:30.021Z,11.41
2018-11-28T11:03:04.801Z,11.45
2018-11-28T11:05:39.419Z,11.47
2018-11-28T11:08:13.727Z,11.43
2018-11-28T11:10:47.902Z,11.37
2018-11-28T11:13:22.250Z,11.41
2018-11-28T11:15:56.698Z,11.23
2018-11-28T11:18:25.876Z,11.26
2018-11-28T11:20:54.894Z,11.21
2018-11-28T11:23:24.343Z,11.28
2018-11-28T11:25:53.650Z,11.31
2018-11-28T11:28:22.488Z,11.34
2018-11-28T11:30:51.719Z,11.28
2018-11-28T11:33:20.823Z,11.35
2018-11-28T11:35:50.021Z,11.22
2018-11-28T11:38:18.978Z,11.23
2018-11-28T11:40:47.760Z,11.34
2018-11-28T11:43:16.833Z,11.34
2018-11-28T11:45:45.627Z,11.34
2018-11-28T11:48:14.769Z,11.27
2018-11-28T11:50:43.565Z,11.34
2018-11-28T11:53:12.410Z,11.38
2018-11-28T11:55:41.481Z,11.42
2018-11-28T11:58:10.255Z,11.41
2018-11-28T12:00:40.653Z,11.30
2018-11-28T12:03:10.962Z,11.18
2018-11-28T12:05:49.333Z,11.42
2018-11-28T12:08:18.356Z,11.44
2018-11-28T12:10:47.271Z,11.48
2018-11-28T12:13:16.049Z,11.46
2018-11-28T12:15:45.055Z,11.50
2018-11-28T12:18:14.392Z,11.43
2018-11-28T12:20:46.617Z,11.45
2018-11-28T12:23:15.721Z,11.38
2018-11-28T12:25:44.799Z,11.38
2018-11-28T12:28:14.118Z,11.37
2018-11-28T12:30:42.446Z,11.35
2018-11-28T12:33:11.868Z,11.49
2018-11-28T12:35:40.666Z,11.36
2018-11-28T12:38:09.631Z,11.35
2018-11-28T12:40:38.464Z,11.38
2018-11-28T12:43:08.570Z,11.46
2018-11-28T12:45:42.067Z,11.42
2018-11-28T12:48:11.365Z,11.44
2018-11-28T12:50:40.448Z,11.49
2018-11-28T12:53:11.530Z,11.42
2018-11-28T12:55:40.393Z,11.31
2018-11-28T12:58:12.029Z,11.40
2018-11-28T13:00:40.866Z,11.46
2018-11-28T13:03:10.973Z,11.38
2018-11-28T13:05:40.125Z,11.46
2018-11-28T13:08:09.456Z,11.44
2018-11-28T13:10:39.301Z,11.45
2018-11-28T13:13:09.316Z,11.45
2018-11-28T13:15:38.694Z,11.46
2018-11-28T13:18:08.733Z,11.43
2018-11-28T13:20:38.225Z,11.36
2018-11-28T13:23:08.320Z,11.48
2018-11-28T13:25:37.095Z,11.44
2018-11-28T13:28:05.974Z,11.42
2018-11-28T13:30:35.034Z,11.37
2018-11-28T13:33:03.850Z,11.36
2018-11-28T13:35:33.173Z,11.47
2018-11-28T13:38:06.360Z,11.49
2018-11-28T13:40:35.313Z,11.40
2018-11-28T13:43:04.128Z,11.40
2018-11-28T13:45:34.845Z,11.33
2018-11-28T13:48:04.017Z,11.40
2018-11-28T13:50:32.825Z,11.35
2018-11-28T13:53:03.669Z,11.22
2018-11-28T13:55:39.564Z,11.16
2018-11-28T13:58:03.581Z,11.19
2018-11-28T14:00:32.355Z,11.14
2018-11-28T14:03:01.154Z,11.01
2018-11-28T14:05:29.937Z,11.09
2018-11-28T14:07:58.926Z,11.09
2018-11-28T14:10:27.907Z,11.23
2018-11-28T14:12:56.765Z,11.09
2018-11-28T14:15:25.927Z,10.99
2018-11-28T14:17:57.949Z,11.07
2018-11-28T14:20:27.105Z,10.89
2018-11-28T14:22:55.977Z,10.96
2018-11-28T14:25:25.076Z,10.99
2018-11-28T14:27:53.836Z,11.05
2018-11-28T14:30:23.259Z,11.02
2018-11-28T14:32:53.197Z,10.99
2018-11-28T14:35:22.692Z,10.92
2018-11-28T14:37:51.802Z,10.94
2018-11-28T14:40:21.953Z,10.84
2018-11-28T14:42:54.559Z,10.88
2018-11-28T14:45:23.632Z,10.99
2018-11-28T14:47:53.157Z,10.88
2018-11-28T14:50:24.814Z,10.86
2018-11-28T14:52:54.566Z,10.97
2018-11-28T14:55:25.384Z,11.04
2018-11-28T14:57:54.445Z,10.94
2018-11-28T15:00:23.990Z,10.92
2018-11-28T15:02:55.062Z,10.82
2018-11-28T15:05:35.000Z,10.93
2018-11-28T15:08:08.009Z,10.80
2018-11-28T15:10:49.854Z,10.70
2018-11-28T15:13:18.989Z,10.66
2018-11-28T15:15:48.134Z,10.65
2018-11-28T15:18:16.942Z,10.53
2018-11-28T15:20:45.746Z,10.61
2018-11-28T15:23:14.621Z,10.79
2018-11-28T15:25:43.798Z,10.82
2018-11-28T15:28:12.917Z,10.71
2018-11-28T15:30:42.275Z,10.67
2018-11-28T15:33:11.321Z,10.80
2018-11-28T15:35:40.338Z,10.91
2018-11-28T15:38:09.489Z,10.95
2018-11-28T15:40:38.321Z,10.82
2018-11-28T15:43:07.216Z,10.80
2018-11-28T15:45:36.363Z,10.90
2018-11-28T15:48:05.542Z,10.89
2018-11-28T15:50:34.353Z,10.90
2018-11-28T15:53:03.765Z,10.88
2018-11-28T15:55:32.580Z,10.83
2018-11-28T15:58:01.419Z,10.86
2018-11-28T16:00:30.749Z,10.84
2018-11-28T16:02:59.556Z,10.90
2018-11-28T16:05:28.631Z,10.86
2018-11-28T16:07:57.884Z,10.85
2018-11-28T16:10:31.897Z,10.85
2018-11-28T16:13:00.730Z,10.65
2018-11-28T16:15:32.489Z,10.74
2018-11-28T16:18:01.312Z,10.54
2018-11-28T16:20:30.327Z,10.58
2018-11-28T16:23:04.258Z,10.63
2018-11-28T16:25:27.946Z,10.64
2018-11-28T16:27:56.732Z,10.71
2018-11-28T16:30:25.908Z,10.80
2018-11-28T16:32:54.689Z,10.75
2018-11-28T16:35:23.825Z,10.70
2018-11-28T16:37:52.869Z,10.63
2018-11-28T16:40:21.722Z,10.53
2018-11-28T16:42:50.526Z,10.56
2018-11-28T16:45:20.720Z,10.56
2018-11-28T16:47:50.041Z,10.61
2018-11-28T16:50:19.146Z,10.63
2018-11-28T16:52:48.443Z,10.67
2018-11-28T16:55:17.830Z,10.57
2018-11-28T16:57:49.107Z,10.54
2018-11-28T17:00:21.114Z,10.49
2018-11-28T17:02:50.545Z,10.43
2018-11-28T17:05:20.455Z,10.12
2018-11-28T17:07:49.462Z,10.37
2018-11-28T17:10:22.606Z,10.46
2018-11-28T17:12:51.710Z,10.51
2018-11-28T17:15:21.052Z,10.56
2018-11-28T17:17:49.912Z,10.54
2018-11-28T17:20:22.997Z,10.52
2018-11-28T17:22:53.955Z,10.58
2018-11-28T17:25:25.178Z,10.49
2018-11-28T17:27:54.128Z,10.74
2018-11-28T17:30:24.321Z,10.73
2018-11-28T17:32:53.382Z,10.80
2018-11-28T17:35:22.536Z,10.71
2018-11-28T17:37:51.962Z,10.62
2018-11-28T17:40:28.277Z,10.62
2018-11-28T17:42:58.094Z,10.61
2018-11-28T17:45:27.784Z,10.46
2018-11-28T17:47:56.617Z,10.24
2018-11-28T17:50:26.270Z,10.15
2018-11-28T17:52:57.705Z,10.05
2018-11-28T17:55:27.614Z,9.99
2018-11-28T17:57:56.617Z,10.08
2018-11-28T18:00:25.796Z,10.11
2018-11-28T18:02:54.909Z,10.02
2018-11-28T18:05:23.685Z,9.83
2018-11-28T18:07:52.526Z,9.87
2018-11-28T18:10:22.140Z,9.65
2018-11-28T18:13:02.022Z,9.87
2018-11-28T18:15:30.837Z,10.00
2018-11-28T18:18:00.076Z,9.47
2018-11-28T18:20:29.129Z,9.36
2018-11-28T18:22:57.967Z,9.31
2018-11-28T18:25:28.453Z,9.53
2018-11-28T18:27:57.284Z,9.67
2018-11-28T18:30:26.078Z,9.55
2018-11-28T18:32:55.383Z,9.64
2018-11-28T18:35:24.196Z,9.77
2018-11-28T18:37:53.322Z,9.55
2018-11-28T18:40:22.316Z,9.82
2018-11-28T18:42:51.297Z,9.86
2018-11-28T18:45:22.085Z,9.99
2018-11-28T18:47:50.859Z,9.84
2018-11-28T18:50:19.821Z,10.08
2018-11-28T18:52:48.609Z,10.07
2018-11-28T18:55:19.592Z,10.14
2018-11-28T18:57:50.045Z,10.23
2018-11-28T19:00:20.283Z,10.12
2018-11-28T19:02:49.044Z,10.24
2018-11-28T19:05:18.223Z,10.23
2018-11-28T19:07:47.105Z,10.25
2018-11-28T19:10:19.030Z,10.35
2018-11-28T19:12:47.877Z,10.43
2018-11-28T19:15:21.946Z,10.36
2018-11-28T19:17:51.239Z,10.50
2018-11-28T19:20:21.063Z,10.24
2018-11-28T19:22:50.560Z,10.08
2018-11-28T19:25:23.250Z,10.29
2018-11-28T19:27:52.219Z,10.27
2018-11-28T19:30:30.991Z,10.31
2018-11-28T19:32:55.428Z,10.47
2018-11-28T19:35:24.538Z,10.46
2018-11-28T19:37:53.786Z,10.42
2018-11-28T19:40:26.575Z,10.38
2018-11-28T19:42:55.882Z,10.32
2018-11-28T19:45:25.015Z,10.38
2018-11-28T19:47:53.803Z,10.41
2018-11-28T19:50:26.093Z,10.44
2018-11-28T19:52:54.917Z,10.33
2018-11-28T19:55:23.765Z,10.19
2018-11-28T19:57:52.609Z,10.24
2018-11-28T20:00:21.665Z,10.29
2018-11-28T20:02:50.457Z,10.36
2018-11-28T20:05:19.621Z,10.22
2018-11-28T20:07:49.338Z,10.18
2018-11-28T20:10:19.369Z,10.16
2018-11-28T20:12:48.405Z,10.08
2018-11-28T20:15:22.423Z,10.05
2018-11-28T20:17:51.369Z,10.28
2018-11-28T20:20:20.560Z,10.42
2018-11-28T20:22:49.573Z,10.39
2018-11-28T20:25:19.466Z,10.32
2018-11-28T20:27:49.843Z,10.23
2018-11-28T20:30:22.931Z,10.04
2018-11-28T20:32:52.150Z,10.12
2018-11-28T20:35:22.074Z,10.15
2018-11-28T20:37:50.885Z,10.30
2018-11-28T20:40:19.861Z,10.19
2018-11-28T20:42:51.432Z,10.34
2018-11-28T20:45:20.791Z,10.31
2018-11-28T20:47:49.629Z,10.38
2018-11-28T20:50:21.345Z,10.34
2018-11-28T20:52:54.946Z,10.22
2018-11-28T20:55:20.513Z,10.25
2018-11-28T20:57:49.502Z,10.01
2018-11-28T21:00:20.614Z,10.15
2018-11-28T21:02:49.618Z,10.20
2018-11-28T21:05:18.757Z,10.03
2018-11-28T21:07:47.539Z,10.09
2018-11-28T21:10:36.781Z,10.07
2018-11-28T21:13:09.333Z,10.02
2018-11-28T21:15:38.166Z,10.00
2018-11-28T21:18:07.927Z,9.99
2018-11-28T21:20:36.945Z,10.08
2018-11-28T21:23:08.053Z,10.07
2018-11-28T21:25:37.246Z,10.10
2018-11-28T21:28:06.273Z,10.21
2018-11-28T21:30:35.400Z,9.88
2018-11-28T21:33:04.201Z,9.88
2018-11-28T21:35:35.461Z,9.72
2018-11-28T21:38:04.243Z,9.00
2018-11-28T21:40:33.181Z,9.37
2018-11-28T21:43:02.013Z,9.70
2018-11-28T21:45:30.815Z,9.62
2018-11-28T21:47:59.605Z,9.76
2018-11-28T21:50:28.570Z,9.81
2018-11-28T21:52:57.345Z,9.80
2018-11-28T21:55:26.445Z,9.95
2018-11-28T21:57:55.217Z,9.97
2018-11-28T22:00:25.923Z,10.02
2018-11-28T22:02:54.709Z,9.96
2018-11-28T22:05:23.902Z,9.82
2018-11-28T22:07:52.714Z,9.77
2018-11-28T22:10:24.340Z,9.76
2018-11-28T22:12:53.697Z,9.84
2018-11-28T22:15:23.217Z,9.83
2018-11-28T22:17:54.650Z,9.74
2018-11-28T22:20:24.474Z,9.82
2018-11-28T22:22:53.317Z,9.64
2018-11-28T22:25:27.104Z,9.75
2018-11-28T22:27:56.294Z,9.86
2018-11-28T22:30:27.200Z,9.73
2018-11-28T22:32:58.986Z,10.04
2018-11-28T22:35:27.779Z,10.04
2018-11-28T22:37:56.903Z,9.91
2018-11-28T22:40:27.901Z,9.95
2018-11-28T22:42:56.911Z,9.98
2018-11-28T22:45:27.238Z,9.91
2018-11-28T22:47:56.013Z,10.01
2018-11-28T22:50:25.138Z,10.22
2018-11-28T22:52:54.080Z,10.27
2018-11-28T22:55:23.201Z,10.23
2018-11-28T22:57:52.009Z,10.21
2018-11-28T23:00:28.536Z,10.10
2018-11-28T23:03:00.001Z,9.96
2018-11-28T23:05:41.048Z,8.95
2018-11-28T23:08:10.593Z,9.66
2018-11-28T23:10:39.777Z,9.21
2018-11-28T23:13:10.242Z,8.52
2018-11-28T23:15:39.213Z,8.76
2018-11-28T23:18:09.061Z,9.61
2018-11-28T23:20:38.141Z,9.92
2018-11-28T23:23:07.694Z,9.78
2018-11-28T23:25:36.911Z,10.02
2018-11-28T23:28:06.462Z,9.88
2018-11-28T23:30:35.650Z,10.03
2018-11-28T23:33:05.074Z,10.02
2018-11-28T23:35:34.196Z,9.74
2018-11-28T23:38:02.973Z,9.92
2018-11-28T23:40:31.781Z,9.92
2018-11-28T23:43:00.716Z,10.06
2018-11-28T23:45:29.772Z,10.15
2018-11-28T23:47:58.557Z,9.77
2018-11-28T23:50:27.402Z,9.39
2018-11-28T23:52:56.341Z,9.79
2018-11-28T23:55:28.877Z,9.76
2018-11-28T23:57:57.901Z,9.53
